Monroe, UT

1:12 AM MDT on July 07, 2015 (GMT -0600)
Putter Butt Farms | | Change Station
CLOSE
Current Station
Personal Weather Station
Location: Monroe, UT
Elevation: 5322 ft
Nearby Weather Stations

Elev 5322 ft 38.65 °N, 112.14 °W | Updated 17 seconds ago

Mostly Cloudy
Mostly Cloudy
60.9 °F
Feels Like 60.9 °F
N
0.0
Wind Variable Wind from SSW
Gusts 0.0 mph

Today
High -- | Low -- °F
--% Chance of Precip.
Yesterday
High -- | Low -- °F
Precip. -- in
6:10 AM 8:55 PM
Waning Gibbous, 67% visible
Pressure 29.95 in
Visibility 10.0 miles
Clouds Few 11000 ft
Dew Point 54 °F
Humidity 77%
Rainfall 0.00 in
Snow Depth Not available.
UV 0.0 out of 12
Pollen 4.70 out of 12
Air Quality Not available.
Flu Activity Not available.
METAR KMLF 070652Z AUTO 20008KT 10SM FEW110 19/11 A3015 RMK AO2 SLP140 T01890106 402830167

More Conditions Fewer Conditions

Pressure 29.95 in
Visibility 10.0 miles
Clouds Few 11000 ft
Dew Point 54 °F
Humidity 77%
Rainfall 0.00 in
Snow Depth Not available.
UV 0.0 out of 12
Pollen 4.70 out of 12
Air Quality Not available.
Flu Activity Not available.
METAR KMLF 070652Z AUTO 20008KT 10SM FEW110 19/11 A3015 RMK AO2 SLP140 T01890106 402830167

More Conditions Fewer Conditions

Nowcast | as of 11:10 PM MDT on July 6, 2015

Widely scattered showers and a few thunderstorms continue across parts of central and southern Utah and southwest Wyoming. At 11 PM the strongest storms were located south of Evanston...near Dugway...and near St George...moving southeast. Wind gusts up to 42 mph have recently been reported near the Tooele Valley. Expect cloud to ground lightning and gusty winds with this activity.

×

10-Day Weather Forecast

×

Almanac

Astronomy

Jul. 07, 2015 Rise Set
Actual Time
Civil Twilight
Nautical Twilight
Astronomical Twilight
Moon
Length of Visible Light
Length of Day
Tomorrow will be .
, % of the Moon is Illuminated

Today's Extremes

State Highs State Lows

Community

WunderPhotos

Upload Photos

1,835,756 photos uploaded!

WunderBlogs® & News

Nearby

Air Quality

  Air Quality AQ Index Pollutant
Not available.

Snow Depth

Station Depth Elevation

Earthquake Activity

City Distance Mag. Time & Date
Minimum magnitude displayed is 2.5.

Coastal Water Temperatures

Place Temperature

Stations

Nearby Weather Stations

Station Location Temp. Windchill Dew Point Humidity Wind Precip. Elev Updated Type